sensor_id;sensor_type;location;lat;lon;timestamp;P1;durP1;ratioP1;P2;durP2;ratioP2
77061;SDS011;65989;51.686;5.138;2023-04-12T00:01:33;5.90;;;1.70;;
77061;SDS011;65989;51.686;5.138;2023-04-12T00:03:59;6.03;;;1.87;;
77061;SDS011;65989;51.686;5.138;2023-04-12T00:06:28;5.95;;;2.00;;
77061;SDS011;65989;51.686;5.138;2023-04-12T00:08:56;5.50;;;2.33;;
77061;SDS011;65989;51.686;5.138;2023-04-12T00:11:25;9.75;;;1.90;;
77061;SDS011;65989;51.686;5.138;2023-04-12T00:13:52;6.03;;;1.73;;
77061;SDS011;65989;51.686;5.138;2023-04-12T00:16:18;4.80;;;1.70;;
77061;SDS011;65989;51.686;5.138;2023-04-12T00:18:44;6.90;;;2.45;;
77061;SDS011;65989;51.686;5.138;2023-04-12T00:21:09;5.20;;;2.00;;
77061;SDS011;65989;51.686;5.138;2023-04-12T00:23:35;10.30;;;2.20;;
77061;SDS011;65989;51.686;5.138;2023-04-12T00:26:02;6.55;;;1.80;;
77061;SDS011;65989;51.686;5.138;2023-04-12T00:28:28;4.78;;;1.60;;
77061;SDS011;65989;51.686;5.138;2023-04-12T00:30:53;9.00;;;2.30;;
77061;SDS011;65989;51.686;5.138;2023-04-12T00:33:19;6.03;;;2.17;;
77061;SDS011;65989;51.686;5.138;2023-04-12T00:35:45;6.47;;;1.93;;
77061;SDS011;65989;51.686;5.138;2023-04-12T00:38:10;5.80;;;2.10;;
77061;SDS011;65989;51.686;5.138;2023-04-12T00:40:39;9.10;;;2.60;;
77061;SDS011;65989;51.686;5.138;2023-04-12T00:43:08;6.45;;;2.35;;
77061;SDS011;65989;51.686;5.138;2023-04-12T00:45:39;9.17;;;2.10;;
77061;SDS011;65989;51.686;5.138;2023-04-12T00:48:05;9.25;;;2.58;;
77061;SDS011;65989;51.686;5.138;2023-04-12T00:50:31;11.32;;;2.35;;
77061;SDS011;65989;51.686;5.138;2023-04-12T00:52:59;6.75;;;2.40;;
77061;SDS011;65989;51.686;5.138;2023-04-12T00:55:24;6.93;;;2.33;;
77061;SDS011;65989;51.686;5.138;2023-04-12T00:57:50;8.13;;;2.77;;
77061;SDS011;65989;51.686;5.138;2023-04-12T01:00:15;7.57;;;2.30;;
77061;SDS011;65989;51.686;5.138;2023-04-12T01:02:42;9.87;;;2.27;;
77061;SDS011;65989;51.686;5.138;2023-04-12T01:05:15;8.10;;;2.20;;
77061;SDS011;65989;51.686;5.138;2023-04-12T01:07:50;9.55;;;2.33;;
77061;SDS011;65989;51.686;5.138;2023-04-12T01:19:11;6.63;;;2.10;;
77061;SDS011;65989;51.686;5.138;2023-04-12T01:22:01;7.70;;;1.98;;
77061;SDS011;65989;51.686;5.138;2023-04-12T01:25:01;10.07;;;2.13;;
77061;SDS011;65989;51.686;5.138;2023-04-12T01:30:09;8.50;;;2.27;;
77061;SDS011;65989;51.686;5.138;2023-04-12T01:32:38;12.07;;;2.08;;
77061;SDS011;65989;51.686;5.138;2023-04-12T01:35:07;6.00;;;2.00;;
77061;SDS011;65989;51.686;5.138;2023-04-12T01:37:34;8.57;;;2.15;;
77061;SDS011;65989;51.686;5.138;2023-04-12T01:40:01;5.90;;;1.80;;
77061;SDS011;65989;51.686;5.138;2023-04-12T01:42:29;7.93;;;1.80;;
77061;SDS011;65989;51.686;5.138;2023-04-12T01:44:55;7.75;;;2.40;;
77061;SDS011;65989;51.686;5.138;2023-04-12T01:47:22;6.97;;;2.50;;
77061;SDS011;65989;51.686;5.138;2023-04-12T01:49:58;7.13;;;2.00;;
77061;SDS011;65989;51.686;5.138;2023-04-12T01:52:37;5.03;;;2.10;;
77061;SDS011;65989;51.686;5.138;2023-04-12T01:55:07;8.32;;;2.28;;
77061;SDS011;65989;51.686;5.138;2023-04-12T01:57:35;6.57;;;1.80;;
77061;SDS011;65989;51.686;5.138;2023-04-12T02:00:03;7.70;;;2.10;;
77061;SDS011;65989;51.686;5.138;2023-04-12T02:02:31;6.77;;;2.60;;
77061;SDS011;65989;51.686;5.138;2023-04-12T02:04:59;9.40;;;2.20;;
77061;SDS011;65989;51.686;5.138;2023-04-12T02:07:27;4.68;;;1.88;;
77061;SDS011;65989;51.686;5.138;2023-04-12T02:09:52;12.68;;;2.10;;
77061;SDS011;65989;51.686;5.138;2023-04-12T02:12:18;7.57;;;2.10;;
77061;SDS011;65989;51.686;5.138;2023-04-12T02:14:43;10.10;;;2.43;;
77061;SDS011;65989;51.686;5.138;2023-04-12T02:17:09;7.47;;;2.00;;
77061;SDS011;65989;51.686;5.138;2023-04-12T02:19:37;7.05;;;2.42;;
77061;SDS011;65989;51.686;5.138;2023-04-12T02:22:02;6.10;;;2.30;;
77061;SDS011;65989;51.686;5.138;2023-04-12T02:24:29;6.05;;;2.22;;
77061;SDS011;65989;51.686;5.138;2023-04-12T02:26:56;8.50;;;2.70;;
77061;SDS011;65989;51.686;5.138;2023-04-12T02:29:23;8.52;;;2.15;;
77061;SDS011;65989;51.686;5.138;2023-04-12T02:31:48;8.67;;;2.87;;
77061;SDS011;65989;51.686;5.138;2023-04-12T02:34:14;8.83;;;2.13;;
77061;SDS011;65989;51.686;5.138;2023-04-12T02:36:44;7.68;;;2.38;;
77061;SDS011;65989;51.686;5.138;2023-04-12T02:39:10;12.52;;;2.40;;
77061;SDS011;65989;51.686;5.138;2023-04-12T02:41:36;5.47;;;2.00;;
77061;SDS011;65989;51.686;5.138;2023-04-12T02:44:01;9.63;;;2.37;;
77061;SDS011;65989;51.686;5.138;2023-04-12T02:46:27;8.48;;;2.00;;
77061;SDS011;65989;51.686;5.138;2023-04-12T02:48:52;10.23;;;2.17;;
77061;SDS011;65989;51.686;5.138;2023-04-12T02:51:18;5.27;;;1.90;;
77061;SDS011;65989;51.686;5.138;2023-04-12T02:53:43;5.33;;;1.77;;
77061;SDS011;65989;51.686;5.138;2023-04-12T02:56:09;5.10;;;2.03;;
77061;SDS011;65989;51.686;5.138;2023-04-12T02:58:35;5.37;;;1.80;;
77061;SDS011;65989;51.686;5.138;2023-04-12T03:01:01;9.93;;;2.05;;
77061;SDS011;65989;51.686;5.138;2023-04-12T03:03:31;8.10;;;2.47;;
77061;SDS011;65989;51.686;5.138;2023-04-12T03:05:57;6.37;;;1.97;;
77061;SDS011;65989;51.686;5.138;2023-04-12T03:08:22;7.32;;;2.55;;
77061;SDS011;65989;51.686;5.138;2023-04-12T03:10:48;6.87;;;1.97;;
77061;SDS011;65989;51.686;5.138;2023-04-12T03:13:13;6.32;;;2.13;;
77061;SDS011;65989;51.686;5.138;2023-04-12T03:15:39;6.47;;;2.10;;
77061;SDS011;65989;51.686;5.138;2023-04-12T03:18:04;5.90;;;2.00;;
77061;SDS011;65989;51.686;5.138;2023-04-12T03:20:30;5.63;;;1.67;;
77061;SDS011;65989;51.686;5.138;2023-04-12T03:22:55;8.60;;;2.17;;
77061;SDS011;65989;51.686;5.138;2023-04-12T03:25:20;4.83;;;2.10;;
77061;SDS011;65989;51.686;5.138;2023-04-12T03:27:46;7.97;;;2.13;;
77061;SDS011;65989;51.686;5.138;2023-04-12T03:30:11;7.63;;;2.07;;
77061;SDS011;65989;51.686;5.138;2023-04-12T03:32:41;7.00;;;1.88;;
77061;SDS011;65989;51.686;5.138;2023-04-12T03:35:07;6.40;;;2.00;;
77061;SDS011;65989;51.686;5.138;2023-04-12T03:37:33;5.82;;;2.13;;
77061;SDS011;65989;51.686;5.138;2023-04-12T03:39:59;6.78;;;1.95;;
77061;SDS011;65989;51.686;5.138;2023-04-12T03:42:25;7.77;;;2.00;;
77061;SDS011;65989;51.686;5.138;2023-04-12T03:44:51;6.03;;;1.98;;
77061;SDS011;65989;51.686;5.138;2023-04-12T03:47:17;8.00;;;2.17;;
77061;SDS011;65989;51.686;5.138;2023-04-12T03:49:43;7.97;;;2.13;;
77061;SDS011;65989;51.686;5.138;2023-04-12T03:52:08;6.63;;;2.00;;
77061;SDS011;65989;51.686;5.138;2023-04-12T03:54:34;7.88;;;2.30;;
77061;SDS011;65989;51.686;5.138;2023-04-12T03:56:59;5.13;;;1.83;;
77061;SDS011;65989;51.686;5.138;2023-04-12T03:59:26;6.78;;;1.75;;
77061;SDS011;65989;51.686;5.138;2023-04-12T04:01:55;6.30;;;1.70;;
77061;SDS011;65989;51.686;5.138;2023-04-12T04:04:21;4.93;;;1.80;;
77061;SDS011;65989;51.686;5.138;2023-04-12T04:06:48;7.13;;;2.10;;
77061;SDS011;65989;51.686;5.138;2023-04-12T04:09:13;4.38;;;1.85;;
77061;SDS011;65989;51.686;5.138;2023-04-12T04:11:39;6.00;;;2.30;;
77061;SDS011;65989;51.686;5.138;2023-04-12T04:14:05;8.27;;;2.00;;
77061;SDS011;65989;51.686;5.138;2023-04-12T04:16:31;7.70;;;2.00;;
77061;SDS011;65989;51.686;5.138;2023-04-12T04:18:56;5.57;;;2.07;;
77061;SDS011;65989;51.686;5.138;2023-04-12T04:21:22;6.67;;;2.00;;
77061;SDS011;65989;51.686;5.138;2023-04-12T04:23:47;4.40;;;1.88;;
77061;SDS011;65989;51.686;5.138;2023-04-12T04:26:15;6.40;;;1.88;;
77061;SDS011;65989;51.686;5.138;2023-04-12T04:28:41;4.87;;;2.00;;
77061;SDS011;65989;51.686;5.138;2023-04-12T04:31:09;7.78;;;2.22;;
77061;SDS011;65989;51.686;5.138;2023-04-12T04:33:35;5.53;;;2.20;;
77061;SDS011;65989;51.686;5.138;2023-04-12T04:36:01;5.40;;;2.10;;
77061;SDS011;65989;51.686;5.138;2023-04-12T04:38:32;8.33;;;1.93;;
77061;SDS011;65989;51.686;5.138;2023-04-12T04:40:57;5.97;;;2.00;;
77061;SDS011;65989;51.686;5.138;2023-04-12T04:43:26;5.22;;;1.88;;
77061;SDS011;65989;51.686;5.138;2023-04-12T04:45:54;6.22;;;2.20;;
77061;SDS011;65989;51.686;5.138;2023-04-12T04:48:21;3.67;;;2.00;;
77061;SDS011;65989;51.686;5.138;2023-04-12T04:50:46;4.30;;;2.40;;
77061;SDS011;65989;51.686;5.138;2023-04-12T04:53:12;6.87;;;2.50;;
77061;SDS011;65989;51.686;5.138;2023-04-12T04:55:37;5.70;;;2.20;;
77061;SDS011;65989;51.686;5.138;2023-04-12T04:58:04;4.70;;;2.17;;
77061;SDS011;65989;51.686;5.138;2023-04-12T05:00:30;4.25;;;1.98;;
77061;SDS011;65989;51.686;5.138;2023-04-12T05:02:55;6.07;;;2.27;;
77061;SDS011;65989;51.686;5.138;2023-04-12T05:05:21;6.67;;;2.30;;
77061;SDS011;65989;51.686;5.138;2023-04-12T05:07:50;5.18;;;2.20;;
77061;SDS011;65989;51.686;5.138;2023-04-12T05:10:15;7.13;;;2.47;;
77061;SDS011;65989;51.686;5.138;2023-04-12T05:12:40;5.00;;;2.25;;
77061;SDS011;65989;51.686;5.138;2023-04-12T05:15:06;6.77;;;2.80;;
77061;SDS011;65989;51.686;5.138;2023-04-12T05:17:32;10.60;;;2.30;;
77061;SDS011;65989;51.686;5.138;2023-04-12T05:19:58;5.00;;;2.20;;
77061;SDS011;65989;51.686;5.138;2023-04-12T05:22:24;7.93;;;2.83;;
77061;SDS011;65989;51.686;5.138;2023-04-12T05:24:50;6.30;;;2.67;;
77061;SDS011;65989;51.686;5.138;2023-04-12T05:27:16;5.57;;;2.30;;
77061;SDS011;65989;51.686;5.138;2023-04-12T05:29:43;6.20;;;2.42;;
77061;SDS011;65989;51.686;5.138;2023-04-12T05:32:08;6.07;;;2.40;;
77061;SDS011;65989;51.686;5.138;2023-04-12T05:34:34;5.35;;;2.60;;
77061;SDS011;65989;51.686;5.138;2023-04-12T05:36:59;5.43;;;2.40;;
77061;SDS011;65989;51.686;5.138;2023-04-12T05:39:25;6.63;;;2.40;;
77061;SDS011;65989;51.686;5.138;2023-04-12T05:41:51;5.93;;;2.40;;
77061;SDS011;65989;51.686;5.138;2023-04-12T05:44:17;7.95;;;2.60;;
77061;SDS011;65989;51.686;5.138;2023-04-12T05:46:42;3.70;;;2.00;;
77061;SDS011;65989;51.686;5.138;2023-04-12T05:49:08;4.03;;;2.10;;
77061;SDS011;65989;51.686;5.138;2023-04-12T05:51:33;5.93;;;2.00;;
77061;SDS011;65989;51.686;5.138;2023-04-12T05:53:58;7.50;;;1.90;;
77061;SDS011;65989;51.686;5.138;2023-04-12T05:56:25;4.57;;;2.20;;
77061;SDS011;65989;51.686;5.138;2023-04-12T05:58:50;4.07;;;2.10;;
77061;SDS011;65989;51.686;5.138;2023-04-12T06:01:16;5.23;;;2.53;;
77061;SDS011;65989;51.686;5.138;2023-04-12T06:03:43;4.47;;;2.45;;
77061;SDS011;65989;51.686;5.138;2023-04-12T06:06:08;6.23;;;2.60;;
77061;SDS011;65989;51.686;5.138;2023-04-12T06:08:34;8.20;;;2.83;;
77061;SDS011;65989;51.686;5.138;2023-04-12T06:11:02;5.37;;;2.53;;
77061;SDS011;65989;51.686;5.138;2023-04-12T06:13:28;6.25;;;2.92;;
77061;SDS011;65989;51.686;5.138;2023-04-12T06:15:53;6.83;;;3.37;;
77061;SDS011;65989;51.686;5.138;2023-04-12T06:18:19;7.97;;;2.80;;
77061;SDS011;65989;51.686;5.138;2023-04-12T06:20:44;5.83;;;2.83;;
77061;SDS011;65989;51.686;5.138;2023-04-12T06:23:10;6.13;;;2.70;;
77061;SDS011;65989;51.686;5.138;2023-04-12T06:25:36;10.05;;;3.05;;
77061;SDS011;65989;51.686;5.138;2023-04-12T06:28:01;6.87;;;3.23;;
77061;SDS011;65989;51.686;5.138;2023-04-12T06:30:27;13.05;;;3.25;;
77061;SDS011;65989;51.686;5.138;2023-04-12T06:32:52;5.67;;;3.40;;
77061;SDS011;65989;51.686;5.138;2023-04-12T06:35:18;7.27;;;3.40;;
77061;SDS011;65989;51.686;5.138;2023-04-12T06:37:44;5.95;;;3.38;;
77061;SDS011;65989;51.686;5.138;2023-04-12T06:40:09;9.70;;;4.33;;
77061;SDS011;65989;51.686;5.138;2023-04-12T06:42:36;9.27;;;3.67;;
77061;SDS011;65989;51.686;5.138;2023-04-12T06:45:02;8.50;;;3.58;;
77061;SDS011;65989;51.686;5.138;2023-04-12T06:47:28;9.60;;;3.90;;
77061;SDS011;65989;51.686;5.138;2023-04-12T06:49:54;9.50;;;3.97;;
77061;SDS011;65989;51.686;5.138;2023-04-12T06:52:22;10.88;;;3.85;;
77061;SDS011;65989;51.686;5.138;2023-04-12T06:54:49;10.52;;;3.95;;
77061;SDS011;65989;51.686;5.138;2023-04-12T06:57:15;14.87;;;4.10;;
77061;SDS011;65989;51.686;5.138;2023-04-12T06:59:40;9.37;;;4.00;;
77061;SDS011;65989;51.686;5.138;2023-04-12T07:02:06;9.53;;;4.10;;
77061;SDS011;65989;51.686;5.138;2023-04-12T07:04:31;11.73;;;4.30;;
77061;SDS011;65989;51.686;5.138;2023-04-12T07:06:57;10.43;;;3.90;;
77061;SDS011;65989;51.686;5.138;2023-04-12T07:09:22;11.60;;;3.97;;
77061;SDS011;65989;51.686;5.138;2023-04-12T07:11:48;11.47;;;4.17;;
77061;SDS011;65989;51.686;5.138;2023-04-12T07:14:13;12.40;;;4.03;;
77061;SDS011;65989;51.686;5.138;2023-04-12T07:16:39;11.45;;;4.10;;
77061;SDS011;65989;51.686;5.138;2023-04-12T07:19:04;14.70;;;4.63;;
77061;SDS011;65989;51.686;5.138;2023-04-12T07:21:30;10.90;;;4.40;;
77061;SDS011;65989;51.686;5.138;2023-04-12T07:23:55;13.27;;;4.30;;
77061;SDS011;65989;51.686;5.138;2023-04-12T07:26:21;14.80;;;4.23;;
77061;SDS011;65989;51.686;5.138;2023-04-12T07:28:46;7.67;;;3.90;;
77061;SDS011;65989;51.686;5.138;2023-04-12T07:31:12;14.50;;;4.05;;
77061;SDS011;65989;51.686;5.138;2023-04-12T07:33:37;13.83;;;4.27;;
77061;SDS011;65989;51.686;5.138;2023-04-12T07:36:03;10.03;;;4.17;;
77061;SDS011;65989;51.686;5.138;2023-04-12T07:38:29;11.95;;;4.45;;
77061;SDS011;65989;51.686;5.138;2023-04-12T07:40:55;14.70;;;4.23;;
77061;SDS011;65989;51.686;5.138;2023-04-12T07:43:21;12.60;;;4.17;;
77061;SDS011;65989;51.686;5.138;2023-04-12T07:45:47;11.00;;;3.92;;
77061;SDS011;65989;51.686;5.138;2023-04-12T07:48:13;11.23;;;4.18;;
77061;SDS011;65989;51.686;5.138;2023-04-12T07:50:38;13.03;;;4.40;;
77061;SDS011;65989;51.686;5.138;2023-04-12T07:56:04;11.73;;;4.13;;
77061;SDS011;65989;51.686;5.138;2023-04-12T07:58:31;12.95;;;4.05;;
77061;SDS011;65989;51.686;5.138;2023-04-12T08:00:57;11.20;;;4.60;;
77061;SDS011;65989;51.686;5.138;2023-04-12T08:03:23;13.65;;;4.45;;
77061;SDS011;65989;51.686;5.138;2023-04-12T08:05:48;14.23;;;3.97;;
77061;SDS011;65989;51.686;5.138;2023-04-12T08:08:17;17.52;;;5.40;;
77061;SDS011;65989;51.686;5.138;2023-04-12T08:10:47;16.13;;;5.43;;
77061;SDS011;65989;51.686;5.138;2023-04-12T08:13:12;16.50;;;5.43;;
77061;SDS011;65989;51.686;5.138;2023-04-12T08:15:38;12.75;;;4.22;;
77061;SDS011;65989;51.686;5.138;2023-04-12T08:18:03;17.33;;;4.77;;
77061;SDS011;65989;51.686;5.138;2023-04-12T08:20:29;15.57;;;4.40;;
77061;SDS011;65989;51.686;5.138;2023-04-12T08:22:55;14.75;;;4.75;;
77061;SDS011;65989;51.686;5.138;2023-04-12T08:25:21;13.63;;;3.87;;
77061;SDS011;65989;51.686;5.138;2023-04-12T08:27:47;18.77;;;4.43;;
77061;SDS011;65989;51.686;5.138;2023-04-12T08:30:13;12.95;;;3.67;;
77061;SDS011;65989;51.686;5.138;2023-04-12T08:32:39;17.40;;;4.20;;
77061;SDS011;65989;51.686;5.138;2023-04-12T08:35:05;17.75;;;4.38;;
77061;SDS011;65989;51.686;5.138;2023-04-12T08:37:31;16.17;;;4.57;;
77061;SDS011;65989;51.686;5.138;2023-04-12T08:39:58;17.83;;;3.90;;
77061;SDS011;65989;51.686;5.138;2023-04-12T08:42:26;23.80;;;4.90;;
77061;SDS011;65989;51.686;5.138;2023-04-12T08:44:52;17.50;;;3.97;;
77061;SDS011;65989;51.686;5.138;2023-04-12T08:47:17;21.13;;;4.27;;
77061;SDS011;65989;51.686;5.138;2023-04-12T08:49:44;14.85;;;3.53;;
77061;SDS011;65989;51.686;5.138;2023-04-12T08:52:09;18.30;;;4.23;;
77061;SDS011;65989;51.686;5.138;2023-04-12T08:54:35;15.30;;;4.10;;
77061;SDS011;65989;51.686;5.138;2023-04-12T08:57:05;19.05;;;4.18;;
77061;SDS011;65989;51.686;5.138;2023-04-12T08:59:34;14.63;;;3.70;;
77061;SDS011;65989;51.686;5.138;2023-04-12T09:02:02;15.40;;;4.20;;
77061;SDS011;65989;51.686;5.138;2023-04-12T09:04:27;22.63;;;4.80;;
77061;SDS011;65989;51.686;5.138;2023-04-12T09:06:53;17.00;;;4.32;;
77061;SDS011;65989;51.686;5.138;2023-04-12T09:09:19;15.50;;;4.43;;
77061;SDS011;65989;51.686;5.138;2023-04-12T09:12:07;16.98;;;3.70;;
77061;SDS011;65989;51.686;5.138;2023-04-12T09:14:33;23.55;;;4.75;;
77061;SDS011;65989;51.686;5.138;2023-04-12T09:16:58;18.63;;;4.40;;
77061;SDS011;65989;51.686;5.138;2023-04-12T09:19:30;15.37;;;4.00;;
77061;SDS011;65989;51.686;5.138;2023-04-12T09:22:00;17.15;;;3.78;;
77061;SDS011;65989;51.686;5.138;2023-04-12T09:24:26;14.88;;;4.00;;
77061;SDS011;65989;51.686;5.138;2023-04-12T09:27:02;16.83;;;3.92;;
77061;SDS011;65989;51.686;5.138;2023-04-12T09:29:29;16.67;;;4.70;;
77061;SDS011;65989;51.686;5.138;2023-04-12T09:32:00;20.90;;;4.23;;
77061;SDS011;65989;51.686;5.138;2023-04-12T09:34:30;25.63;;;3.85;;
77061;SDS011;65989;51.686;5.138;2023-04-12T09:36:56;18.35;;;4.47;;
77061;SDS011;65989;51.686;5.138;2023-04-12T09:39:32;18.27;;;3.92;;
77061;SDS011;65989;51.686;5.138;2023-04-12T09:42:11;22.02;;;4.30;;
77061;SDS011;65989;51.686;5.138;2023-04-12T09:44:39;17.57;;;3.60;;
77061;SDS011;65989;51.686;5.138;2023-04-12T09:47:04;17.45;;;3.47;;
77061;SDS011;65989;51.686;5.138;2023-04-12T09:49:41;18.17;;;3.80;;
77061;SDS011;65989;51.686;5.138;2023-04-12T09:52:11;16.88;;;3.42;;
77061;SDS011;65989;51.686;5.138;2023-04-12T09:54:40;18.57;;;3.73;;
77061;SDS011;65989;51.686;5.138;2023-04-12T09:57:07;15.07;;;3.42;;
77061;SDS011;65989;51.686;5.138;2023-04-12T09:59:40;25.23;;;3.38;;
77061;SDS011;65989;51.686;5.138;2023-04-12T10:04:46;20.02;;;3.55;;
77061;SDS011;65989;51.686;5.138;2023-04-12T10:07:12;17.43;;;3.13;;
77061;SDS011;65989;51.686;5.138;2023-04-12T10:09:39;16.35;;;3.65;;
77061;SDS011;65989;51.686;5.138;2023-04-12T10:12:06;21.08;;;3.45;;
77061;SDS011;65989;51.686;5.138;2023-04-12T10:14:33;16.50;;;3.10;;
77061;SDS011;65989;51.686;5.138;2023-04-12T10:17:06;17.05;;;2.80;;
77061;SDS011;65989;51.686;5.138;2023-04-12T10:19:33;18.83;;;3.03;;
77061;SDS011;65989;51.686;5.138;2023-04-12T10:21:59;14.45;;;2.30;;
77061;SDS011;65989;51.686;5.138;2023-04-12T10:24:26;16.60;;;2.58;;
77061;SDS011;65989;51.686;5.138;2023-04-12T10:26:53;15.20;;;3.33;;
77061;SDS011;65989;51.686;5.138;2023-04-12T10:29:23;20.35;;;3.10;;
77061;SDS011;65989;51.686;5.138;2023-04-12T10:31:52;10.00;;;2.33;;
77061;SDS011;65989;51.686;5.138;2023-04-12T10:34:22;13.05;;;2.60;;
77061;SDS011;65989;51.686;5.138;2023-04-12T10:36:55;13.10;;;2.20;;
77061;SDS011;65989;51.686;5.138;2023-04-12T10:39:35;13.68;;;2.28;;
77061;SDS011;65989;51.686;5.138;2023-04-12T10:44:40;13.43;;;2.20;;
77061;SDS011;65989;51.686;5.138;2023-04-12T10:47:05;12.70;;;2.20;;
77061;SDS011;65989;51.686;5.138;2023-04-12T10:49:31;12.90;;;2.37;;
77061;SDS011;65989;51.686;5.138;2023-04-12T10:56:53;13.40;;;2.20;;
77061;SDS011;65989;51.686;5.138;2023-04-12T10:59:19;14.23;;;2.30;;
77061;SDS011;65989;51.686;5.138;2023-04-12T11:04:28;9.60;;;2.45;;
77061;SDS011;65989;51.686;5.138;2023-04-12T11:06:55;14.80;;;2.50;;
77061;SDS011;65989;51.686;5.138;2023-04-12T11:14:50;10.75;;;2.67;;
77061;SDS011;65989;51.686;5.138;2023-04-12T11:19:41;13.80;;;2.80;;
77061;SDS011;65989;51.686;5.138;2023-04-12T11:22:15;12.02;;;2.55;;
77061;SDS011;65989;51.686;5.138;2023-04-12T11:24:45;14.07;;;2.80;;
77061;SDS011;65989;51.686;5.138;2023-04-12T11:27:15;15.90;;;3.20;;
77061;SDS011;65989;51.686;5.138;2023-04-12T11:29:41;15.73;;;3.08;;
77061;SDS011;65989;51.686;5.138;2023-04-12T11:32:11;15.77;;;2.70;;
77061;SDS011;65989;51.686;5.138;2023-04-12T11:34:41;17.23;;;2.75;;
77061;SDS011;65989;51.686;5.138;2023-04-12T11:37:08;14.80;;;2.70;;
77061;SDS011;65989;51.686;5.138;2023-04-12T11:39:37;12.80;;;2.70;;
77061;SDS011;65989;51.686;5.138;2023-04-12T11:42:04;13.27;;;2.55;;
77061;SDS011;65989;51.686;5.138;2023-04-12T11:44:33;14.30;;;2.60;;
77061;SDS011;65989;51.686;5.138;2023-04-12T11:46:59;11.93;;;1.93;;
77061;SDS011;65989;51.686;5.138;2023-04-12T11:49:28;15.23;;;2.70;;
77061;SDS011;65989;51.686;5.138;2023-04-12T11:52:03;14.33;;;2.77;;
77061;SDS011;65989;51.686;5.138;2023-04-12T11:54:29;14.00;;;2.50;;
77061;SDS011;65989;51.686;5.138;2023-04-12T11:56:56;10.68;;;2.63;;
77061;SDS011;65989;51.686;5.138;2023-04-12T11:59:28;13.02;;;2.00;;
77061;SDS011;65989;51.686;5.138;2023-04-12T12:01:55;11.55;;;2.38;;
77061;SDS011;65989;51.686;5.138;2023-04-12T12:04:20;13.17;;;3.03;;
77061;SDS011;65989;51.686;5.138;2023-04-12T12:06:46;14.43;;;2.17;;
77061;SDS011;65989;51.686;5.138;2023-04-12T12:09:12;14.37;;;2.20;;
77061;SDS011;65989;51.686;5.138;2023-04-12T12:11:37;10.57;;;2.10;;
77061;SDS011;65989;51.686;5.138;2023-04-12T12:14:03;12.35;;;2.10;;
77061;SDS011;65989;51.686;5.138;2023-04-12T12:16:31;13.18;;;2.42;;
77061;SDS011;65989;51.686;5.138;2023-04-12T12:18:56;16.23;;;2.40;;
77061;SDS011;65989;51.686;5.138;2023-04-12T12:21:22;10.10;;;2.00;;
77061;SDS011;65989;51.686;5.138;2023-04-12T12:23:47;11.63;;;2.73;;
77061;SDS011;65989;51.686;5.138;2023-04-12T12:28:49;13.27;;;2.53;;
77061;SDS011;65989;51.686;5.138;2023-04-12T12:31:17;10.50;;;2.30;;
77061;SDS011;65989;51.686;5.138;2023-04-12T12:33:47;13.00;;;2.65;;
77061;SDS011;65989;51.686;5.138;2023-04-12T12:36:16;12.27;;;2.40;;
77061;SDS011;65989;51.686;5.138;2023-04-12T12:38:44;13.55;;;2.45;;
77061;SDS011;65989;51.686;5.138;2023-04-12T12:41:17;11.17;;;2.53;;
77061;SDS011;65989;51.686;5.138;2023-04-12T12:43:44;12.80;;;2.35;;
77061;SDS011;65989;51.686;5.138;2023-04-12T12:46:10;10.82;;;2.80;;
77061;SDS011;65989;51.686;5.138;2023-04-12T12:48:42;7.83;;;2.03;;
77061;SDS011;65989;51.686;5.138;2023-04-12T12:51:09;9.30;;;2.45;;
77061;SDS011;65989;51.686;5.138;2023-04-12T12:53:36;6.55;;;2.00;;
77061;SDS011;65989;51.686;5.138;2023-04-12T12:56:02;5.50;;;1.80;;
77061;SDS011;65989;51.686;5.138;2023-04-12T12:58:28;7.87;;;1.90;;
77061;SDS011;65989;51.686;5.138;2023-04-12T13:00:53;5.75;;;1.70;;
77061;SDS011;65989;51.686;5.138;2023-04-12T13:03:19;8.37;;;1.90;;
77061;SDS011;65989;51.686;5.138;2023-04-12T13:05:45;8.27;;;1.73;;
77061;SDS011;65989;51.686;5.138;2023-04-12T13:08:10;7.00;;;2.13;;
77061;SDS011;65989;51.686;5.138;2023-04-12T13:10:35;10.20;;;2.13;;
77061;SDS011;65989;51.686;5.138;2023-04-12T13:13:01;10.13;;;1.73;;
77061;SDS011;65989;51.686;5.138;2023-04-12T13:15:27;6.60;;;1.60;;
77061;SDS011;65989;51.686;5.138;2023-04-12T13:17:53;9.33;;;1.67;;
77061;SDS011;65989;51.686;5.138;2023-04-12T13:20:19;11.23;;;1.90;;
77061;SDS011;65989;51.686;5.138;2023-04-12T13:22:45;6.25;;;1.73;;
77061;SDS011;65989;51.686;5.138;2023-04-12T13:25:11;6.63;;;1.80;;
77061;SDS011;65989;51.686;5.138;2023-04-12T13:27:36;8.87;;;1.60;;
77061;SDS011;65989;51.686;5.138;2023-04-12T13:30:02;7.43;;;1.88;;
77061;SDS011;65989;51.686;5.138;2023-04-12T13:32:28;5.33;;;1.77;;
77061;SDS011;65989;51.686;5.138;2023-04-12T13:34:53;7.83;;;1.80;;
77061;SDS011;65989;51.686;5.138;2023-04-12T13:37:19;5.70;;;1.70;;
77061;SDS011;65989;51.686;5.138;2023-04-12T13:39:45;5.40;;;1.60;;
77061;SDS011;65989;51.686;5.138;2023-04-12T13:42:10;4.53;;;1.50;;
77061;SDS011;65989;51.686;5.138;2023-04-12T13:44:36;7.53;;;1.63;;
77061;SDS011;65989;51.686;5.138;2023-04-12T13:47:01;5.37;;;1.73;;
77061;SDS011;65989;51.686;5.138;2023-04-12T13:49:27;4.85;;;1.58;;
77061;SDS011;65989;51.686;5.138;2023-04-12T13:51:54;5.73;;;1.80;;
77061;SDS011;65989;51.686;5.138;2023-04-12T13:54:20;5.50;;;1.63;;
77061;SDS011;65989;51.686;5.138;2023-04-12T13:56:46;6.37;;;1.60;;
77061;SDS011;65989;51.686;5.138;2023-04-12T13:59:12;6.18;;;1.70;;
77061;SDS011;65989;51.686;5.138;2023-04-12T14:01:38;6.78;;;1.80;;
77061;SDS011;65989;51.686;5.138;2023-04-12T14:04:04;6.00;;;1.70;;
77061;SDS011;65989;51.686;5.138;2023-04-12T14:06:30;7.00;;;1.50;;
77061;SDS011;65989;51.686;5.138;2023-04-12T14:08:56;6.22;;;1.70;;
77061;SDS011;65989;51.686;5.138;2023-04-12T14:11:22;6.40;;;1.60;;
77061;SDS011;65989;51.686;5.138;2023-04-12T14:13:48;8.50;;;1.92;;
77061;SDS011;65989;51.686;5.138;2023-04-12T14:16:14;5.78;;;1.40;;
77061;SDS011;65989;51.686;5.138;2023-04-12T14:18:40;5.03;;;1.30;;
77061;SDS011;65989;51.686;5.138;2023-04-12T14:21:05;5.72;;;1.10;;
77061;SDS011;65989;51.686;5.138;2023-04-12T14:23:31;4.43;;;1.20;;
77061;SDS011;65989;51.686;5.138;2023-04-12T14:25:56;4.77;;;1.20;;
77061;SDS011;65989;51.686;5.138;2023-04-12T14:28:22;2.07;;;0.90;;
77061;SDS011;65989;51.686;5.138;2023-04-12T14:30:51;3.85;;;1.10;;
77061;SDS011;65989;51.686;5.138;2023-04-12T14:33:17;2.53;;;1.10;;
77061;SDS011;65989;51.686;5.138;2023-04-12T14:35:42;2.95;;;1.00;;
77061;SDS011;65989;51.686;5.138;2023-04-12T14:38:08;1.60;;;0.80;;
77061;SDS011;65989;51.686;5.138;2023-04-12T14:40:36;2.67;;;1.10;;
77061;SDS011;65989;51.686;5.138;2023-04-12T14:43:02;2.97;;;0.82;;
77061;SDS011;65989;51.686;5.138;2023-04-12T14:45:27;4.50;;;1.13;;
77061;SDS011;65989;51.686;5.138;2023-04-12T14:47:53;5.20;;;1.00;;
77061;SDS011;65989;51.686;5.138;2023-04-12T14:50:18;2.63;;;1.02;;
77061;SDS011;65989;51.686;5.138;2023-04-12T14:52:45;2.67;;;1.10;;
77061;SDS011;65989;51.686;5.138;2023-04-12T14:55:10;4.45;;;1.00;;
77061;SDS011;65989;51.686;5.138;2023-04-12T14:57:37;4.17;;;1.20;;
77061;SDS011;65989;51.686;5.138;2023-04-12T15:00:03;3.13;;;0.98;;
77061;SDS011;65989;51.686;5.138;2023-04-12T15:02:36;3.93;;;1.10;;
77061;SDS011;65989;51.686;5.138;2023-04-12T15:05:02;5.75;;;1.10;;
77061;SDS011;65989;51.686;5.138;2023-04-12T15:07:31;4.25;;;1.20;;
77061;SDS011;65989;51.686;5.138;2023-04-12T15:09:56;3.80;;;1.20;;
77061;SDS011;65989;51.686;5.138;2023-04-12T15:12:23;5.07;;;1.40;;
77061;SDS011;65989;51.686;5.138;2023-04-12T15:14:49;5.00;;;1.30;;
77061;SDS011;65989;51.686;5.138;2023-04-12T15:17:15;5.37;;;1.20;;
77061;SDS011;65989;51.686;5.138;2023-04-12T15:19:40;4.13;;;1.03;;